sensor_id;sensor_type;location;lat;lon;timestamp;P1;durP1;ratioP1;P2;durP2;ratioP2
84270;SDS011;74614;50.032;19.566;2023-12-20T00:01:14;17;;;10;;
84270;SDS011;74614;50.032;19.566;2023-12-20T00:03:21;17;;;10;;
84270;SDS011;74614;50.032;19.566;2023-12-20T00:05:25;17;;;10;;
84270;SDS011;74614;50.032;19.566;2023-12-20T00:07:22;17;;;10;;
84270;SDS011;74614;50.032;19.566;2023-12-20T00:09:28;16;;;10;;
84270;SDS011;74614;50.032;19.566;2023-12-20T00:11:20;17;;;10;;
84270;SDS011;74614;50.032;19.566;2023-12-20T00:13:22;16;;;9;;
84270;SDS011;74614;50.032;19.566;2023-12-20T00:15:23;17;;;10;;
84270;SDS011;74614;50.032;19.566;2023-12-20T00:17:25;14;;;9;;
84270;SDS011;74614;50.032;19.566;2023-12-20T00:19:28;14;;;8;;
84270;SDS011;74614;50.032;19.566;2023-12-20T00:21:24;13;;;8;;
84270;SDS011;74614;50.032;19.566;2023-12-20T00:23:21;13;;;8;;
84270;SDS011;74614;50.032;19.566;2023-12-20T00:25:28;13;;;8;;
84270;SDS011;74614;50.032;19.566;2023-12-20T00:27:20;13;;;8;;
84270;SDS011;74614;50.032;19.566;2023-12-20T00:29:24;13;;;8;;
84270;SDS011;74614;50.032;19.566;2023-12-20T00:31:25;13;;;8;;
84270;SDS011;74614;50.032;19.566;2023-12-20T00:33:21;13;;;8;;
84270;SDS011;74614;50.032;19.566;2023-12-20T00:35:21;13;;;8;;
84270;SDS011;74614;50.032;19.566;2023-12-20T00:37:29;12;;;7;;
84270;SDS011;74614;50.032;19.566;2023-12-20T00:39:21;12;;;7;;
84270;SDS011;74614;50.032;19.566;2023-12-20T00:41:22;12;;;7;;
84270;SDS011;74614;50.032;19.566;2023-12-20T00:43:23;12;;;7;;
84270;SDS011;74614;50.032;19.566;2023-12-20T00:45:23;12;;;7;;
84270;SDS011;74614;50.032;19.566;2023-12-20T00:47:23;12;;;7;;
84270;SDS011;74614;50.032;19.566;2023-12-20T00:49:24;12;;;7;;
84270;SDS011;74614;50.032;19.566;2023-12-20T00:51:24;9;;;6;;
84270;SDS011;74614;50.032;19.566;2023-12-20T00:53:24;9;;;5;;
84270;SDS011;74614;50.032;19.566;2023-12-20T00:55:21;8;;;6;;
84270;SDS011;74614;50.032;19.566;2023-12-20T00:57:23;8;;;6;;
84270;SDS011;74614;50.032;19.566;2023-12-20T00:59:27;8;;;5;;
84270;SDS011;74614;50.032;19.566;2023-12-20T01:01:26;8;;;5;;
84270;SDS011;74614;50.032;19.566;2023-12-20T01:03:20;9;;;6;;
84270;SDS011;74614;50.032;19.566;2023-12-20T01:05:24;8;;;6;;
84270;SDS011;74614;50.032;19.566;2023-12-20T01:07:21;8;;;5;;
84270;SDS011;74614;50.032;19.566;2023-12-20T01:09:30;9;;;6;;
84270;SDS011;74614;50.032;19.566;2023-12-20T01:11:27;8;;;5;;
84270;SDS011;74614;50.032;19.566;2023-12-20T01:13:22;8;;;5;;
84270;SDS011;74614;50.032;19.566;2023-12-20T01:15:21;10;;;6;;
84270;SDS011;74614;50.032;19.566;2023-12-20T01:17:28;8;;;5;;
84270;SDS011;74614;50.032;19.566;2023-12-20T01:19:24;8;;;6;;
84270;SDS011;74614;50.032;19.566;2023-12-20T01:21:23;9;;;5;;
84270;SDS011;74614;50.032;19.566;2023-12-20T01:23:22;8;;;5;;
84270;SDS011;74614;50.032;19.566;2023-12-20T01:25:26;7;;;5;;
84270;SDS011;74614;50.032;19.566;2023-12-20T01:27:22;7;;;5;;
84270;SDS011;74614;50.032;19.566;2023-12-20T01:29:27;8;;;5;;
84270;SDS011;74614;50.032;19.566;2023-12-20T01:31:21;7;;;5;;
84270;SDS011;74614;50.032;19.566;2023-12-20T01:33:25;7;;;5;;
84270;SDS011;74614;50.032;19.566;2023-12-20T01:35:21;7;;;5;;
84270;SDS011;74614;50.032;19.566;2023-12-20T01:37:26;7;;;5;;
84270;SDS011;74614;50.032;19.566;2023-12-20T01:39:24;8;;;5;;
84270;SDS011;74614;50.032;19.566;2023-12-20T01:41:23;7;;;5;;
84270;SDS011;74614;50.032;19.566;2023-12-20T01:43:22;7;;;5;;
84270;SDS011;74614;50.032;19.566;2023-12-20T01:45:22;7;;;5;;
84270;SDS011;74614;50.032;19.566;2023-12-20T01:47:23;6;;;5;;
84270;SDS011;74614;50.032;19.566;2023-12-20T01:49:22;7;;;5;;
84270;SDS011;74614;50.032;19.566;2023-12-20T01:51:22;6;;;5;;
84270;SDS011;74614;50.032;19.566;2023-12-20T01:53:26;7;;;5;;
84270;SDS011;74614;50.032;19.566;2023-12-20T01:55:21;7;;;5;;
84270;SDS011;74614;50.032;19.566;2023-12-20T01:57:21;7;;;5;;
84270;SDS011;74614;50.032;19.566;2023-12-20T01:59:21;7;;;4;;
84270;SDS011;74614;50.032;19.566;2023-12-20T02:01:27;6;;;4;;
84270;SDS011;74614;50.032;19.566;2023-12-20T02:03:22;6;;;4;;
84270;SDS011;74614;50.032;19.566;2023-12-20T02:05:22;6;;;4;;
84270;SDS011;74614;50.032;19.566;2023-12-20T02:07:24;7;;;4;;
84270;SDS011;74614;50.032;19.566;2023-12-20T02:09:24;7;;;5;;
84270;SDS011;74614;50.032;19.566;2023-12-20T02:11:24;7;;;5;;
84270;SDS011;74614;50.032;19.566;2023-12-20T02:13:23;7;;;5;;
84270;SDS011;74614;50.032;19.566;2023-12-20T02:15:24;6;;;4;;
84270;SDS011;74614;50.032;19.566;2023-12-20T02:17:24;6;;;5;;
84270;SDS011;74614;50.032;19.566;2023-12-20T02:19:25;6;;;5;;
84270;SDS011;74614;50.032;19.566;2023-12-20T02:21:24;6;;;4;;
84270;SDS011;74614;50.032;19.566;2023-12-20T02:23:22;6;;;4;;
84270;SDS011;74614;50.032;19.566;2023-12-20T02:25:25;6;;;4;;
84270;SDS011;74614;50.032;19.566;2023-12-20T02:27:26;5;;;3;;
84270;SDS011;74614;50.032;19.566;2023-12-20T02:29:23;6;;;5;;
84270;SDS011;74614;50.032;19.566;2023-12-20T02:31:22;6;;;5;;
84270;SDS011;74614;50.032;19.566;2023-12-20T02:33:23;7;;;5;;
84270;SDS011;74614;50.032;19.566;2023-12-20T02:35:20;6;;;4;;
84270;SDS011;74614;50.032;19.566;2023-12-20T02:37:27;5;;;4;;
84270;SDS011;74614;50.032;19.566;2023-12-20T02:39:31;7;;;4;;
84270;SDS011;74614;50.032;19.566;2023-12-20T02:41:24;7;;;5;;
84270;SDS011;74614;50.032;19.566;2023-12-20T02:43:24;6;;;5;;
84270;SDS011;74614;50.032;19.566;2023-12-20T02:45:24;6;;;5;;
84270;SDS011;74614;50.032;19.566;2023-12-20T02:47:24;7;;;5;;
84270;SDS011;74614;50.032;19.566;2023-12-20T02:49:22;7;;;5;;
84270;SDS011;74614;50.032;19.566;2023-12-20T02:51:24;6;;;5;;
84270;SDS011;74614;50.032;19.566;2023-12-20T02:53:22;7;;;4;;
84270;SDS011;74614;50.032;19.566;2023-12-20T02:55:20;8;;;6;;
84270;SDS011;74614;50.032;19.566;2023-12-20T02:57:21;8;;;5;;
84270;SDS011;74614;50.032;19.566;2023-12-20T02:59:23;7;;;5;;
84270;SDS011;74614;50.032;19.566;2023-12-20T03:01:29;6;;;4;;
84270;SDS011;74614;50.032;19.566;2023-12-20T03:03:21;7;;;5;;
84270;SDS011;74614;50.032;19.566;2023-12-20T03:05:22;5;;;4;;
84270;SDS011;74614;50.032;19.566;2023-12-20T03:07:21;7;;;4;;
84270;SDS011;74614;50.032;19.566;2023-12-20T03:09:23;6;;;4;;
84270;SDS011;74614;50.032;19.566;2023-12-20T03:11:20;5;;;4;;
84270;SDS011;74614;50.032;19.566;2023-12-20T03:13:29;6;;;4;;
84270;SDS011;74614;50.032;19.566;2023-12-20T03:15:21;6;;;4;;
84270;SDS011;74614;50.032;19.566;2023-12-20T03:17:27;6;;;4;;
84270;SDS011;74614;50.032;19.566;2023-12-20T03:19:32;6;;;4;;
84270;SDS011;74614;50.032;19.566;2023-12-20T03:21:23;7;;;5;;
84270;SDS011;74614;50.032;19.566;2023-12-20T03:23:23;5;;;4;;
84270;SDS011;74614;50.032;19.566;2023-12-20T03:25:23;7;;;5;;
84270;SDS011;74614;50.032;19.566;2023-12-20T03:27:22;6;;;4;;
84270;SDS011;74614;50.032;19.566;2023-12-20T03:29:22;7;;;5;;
84270;SDS011;74614;50.032;19.566;2023-12-20T03:31:23;6;;;5;;
84270;SDS011;74614;50.032;19.566;2023-12-20T03:33:22;8;;;6;;
84270;SDS011;74614;50.032;19.566;2023-12-20T03:35:22;6;;;4;;
84270;SDS011;74614;50.032;19.566;2023-12-20T03:37:23;6;;;4;;
84270;SDS011;74614;50.032;19.566;2023-12-20T03:39:23;7;;;5;;
84270;SDS011;74614;50.032;19.566;2023-12-20T03:41:22;7;;;4;;
84270;SDS011;74614;50.032;19.566;2023-12-20T03:43:21;6;;;4;;
84270;SDS011;74614;50.032;19.566;2023-12-20T03:45:25;7;;;5;;
84270;SDS011;74614;50.032;19.566;2023-12-20T03:47:22;6;;;5;;
84270;SDS011;74614;50.032;19.566;2023-12-20T03:49:22;6;;;5;;
84270;SDS011;74614;50.032;19.566;2023-12-20T03:51:20;6;;;5;;
84270;SDS011;74614;50.032;19.566;2023-12-20T03:53:24;8;;;5;;
84270;SDS011;74614;50.032;19.566;2023-12-20T03:55:29;7;;;5;;
84270;SDS011;74614;50.032;19.566;2023-12-20T03:57:24;7;;;5;;
84270;SDS011;74614;50.032;19.566;2023-12-20T03:59:24;7;;;5;;
84270;SDS011;74614;50.032;19.566;2023-12-20T04:01:23;6;;;5;;
84270;SDS011;74614;50.032;19.566;2023-12-20T04:03:25;6;;;5;;
84270;SDS011;74614;50.032;19.566;2023-12-20T04:05:28;6;;;5;;
84270;SDS011;74614;50.032;19.566;2023-12-20T04:07:25;6;;;5;;
84270;SDS011;74614;50.032;19.566;2023-12-20T04:09:26;6;;;5;;
84270;SDS011;74614;50.032;19.566;2023-12-20T04:11:23;6;;;5;;
84270;SDS011;74614;50.032;19.566;2023-12-20T04:13:23;6;;;5;;
84270;SDS011;74614;50.032;19.566;2023-12-20T04:15:30;7;;;5;;
84270;SDS011;74614;50.032;19.566;2023-12-20T04:17:24;9;;;6;;
84270;SDS011;74614;50.032;19.566;2023-12-20T04:19:21;7;;;6;;
84270;SDS011;74614;50.032;19.566;2023-12-20T04:21:24;7;;;5;;
84270;SDS011;74614;50.032;19.566;2023-12-20T04:23:25;9;;;6;;
84270;SDS011;74614;50.032;19.566;2023-12-20T04:25:22;9;;;6;;
84270;SDS011;74614;50.032;19.566;2023-12-20T04:27:32;8;;;6;;
84270;SDS011;74614;50.032;19.566;2023-12-20T04:29:23;8;;;6;;
84270;SDS011;74614;50.032;19.566;2023-12-20T04:31:21;8;;;6;;
84270;SDS011;74614;50.032;19.566;2023-12-20T04:33:24;8;;;6;;
84270;SDS011;74614;50.032;19.566;2023-12-20T04:35:20;8;;;6;;
84270;SDS011;74614;50.032;19.566;2023-12-20T04:37:25;8;;;6;;
84270;SDS011;74614;50.032;19.566;2023-12-20T04:39:21;6;;;5;;
84270;SDS011;74614;50.032;19.566;2023-12-20T04:41:24;8;;;6;;
84270;SDS011;74614;50.032;19.566;2023-12-20T04:43:20;7;;;5;;
84270;SDS011;74614;50.032;19.566;2023-12-20T04:45:25;6;;;4;;
84270;SDS011;74614;50.032;19.566;2023-12-20T04:47:21;6;;;5;;
84270;SDS011;74614;50.032;19.566;2023-12-20T04:49:24;7;;;5;;
84270;SDS011;74614;50.032;19.566;2023-12-20T04:51:23;7;;;6;;
84270;SDS011;74614;50.032;19.566;2023-12-20T04:53:22;6;;;5;;
84270;SDS011;74614;50.032;19.566;2023-12-20T04:55:23;7;;;5;;
84270;SDS011;74614;50.032;19.566;2023-12-20T04:57:23;6;;;4;;
84270;SDS011;74614;50.032;19.566;2023-12-20T04:59:27;7;;;5;;
84270;SDS011;74614;50.032;19.566;2023-12-20T05:01:28;7;;;6;;
84270;SDS011;74614;50.032;19.566;2023-12-20T05:03:22;7;;;5;;
84270;SDS011;74614;50.032;19.566;2023-12-20T05:05:22;7;;;4;;
84270;SDS011;74614;50.032;19.566;2023-12-20T05:07:21;7;;;5;;
84270;SDS011;74614;50.032;19.566;2023-12-20T05:09:24;7;;;5;;
84270;SDS011;74614;50.032;19.566;2023-12-20T05:11:20;7;;;5;;
84270;SDS011;74614;50.032;19.566;2023-12-20T05:13:25;7;;;5;;
84270;SDS011;74614;50.032;19.566;2023-12-20T05:15:23;7;;;5;;
84270;SDS011;74614;50.032;19.566;2023-12-20T05:17:24;7;;;5;;
84270;SDS011;74614;50.032;19.566;2023-12-20T05:19:23;6;;;5;;
84270;SDS011;74614;50.032;19.566;2023-12-20T05:21:23;7;;;5;;
84270;SDS011;74614;50.032;19.566;2023-12-20T05:23:22;6;;;4;;
84270;SDS011;74614;50.032;19.566;2023-12-20T05:25:23;7;;;5;;
84270;SDS011;74614;50.032;19.566;2023-12-20T05:27:21;7;;;6;;
84270;SDS011;74614;50.032;19.566;2023-12-20T05:29:22;7;;;6;;
84270;SDS011;74614;50.032;19.566;2023-12-20T05:31:27;10;;;6;;
84270;SDS011;74614;50.032;19.566;2023-12-20T05:33:22;11;;;7;;
84270;SDS011;74614;50.032;19.566;2023-12-20T05:35:21;8;;;5;;
84270;SDS011;74614;50.032;19.566;2023-12-20T05:37:22;7;;;5;;
84270;SDS011;74614;50.032;19.566;2023-12-20T05:39:23;8;;;6;;
84270;SDS011;74614;50.032;19.566;2023-12-20T05:41:28;7;;;6;;
84270;SDS011;74614;50.032;19.566;2023-12-20T05:43:21;7;;;6;;
84270;SDS011;74614;50.032;19.566;2023-12-20T05:45:26;7;;;4;;
84270;SDS011;74614;50.032;19.566;2023-12-20T05:47:22;7;;;6;;
84270;SDS011;74614;50.032;19.566;2023-12-20T05:49:25;7;;;5;;
84270;SDS011;74614;50.032;19.566;2023-12-20T05:51:22;8;;;6;;
84270;SDS011;74614;50.032;19.566;2023-12-20T05:53:30;9;;;6;;
84270;SDS011;74614;50.032;19.566;2023-12-20T05:55:23;9;;;7;;
84270;SDS011;74614;50.032;19.566;2023-12-20T05:57:27;9;;;7;;
84270;SDS011;74614;50.032;19.566;2023-12-20T05:59:21;8;;;6;;
84270;SDS011;74614;50.032;19.566;2023-12-20T06:01:23;8;;;6;;
84270;SDS011;74614;50.032;19.566;2023-12-20T06:03:20;7;;;5;;
84270;SDS011;74614;50.032;19.566;2023-12-20T06:05:22;8;;;7;;
84270;SDS011;74614;50.032;19.566;2023-12-20T06:07:21;10;;;6;;
84270;SDS011;74614;50.032;19.566;2023-12-20T06:09:22;10;;;6;;
84270;SDS011;74614;50.032;19.566;2023-12-20T06:11:21;10;;;6;;
84270;SDS011;74614;50.032;19.566;2023-12-20T06:13:24;10;;;6;;
84270;SDS011;74614;50.032;19.566;2023-12-20T06:15:20;10;;;6;;
84270;SDS011;74614;50.032;19.566;2023-12-20T06:17:22;10;;;6;;
84270;SDS011;74614;50.032;19.566;2023-12-20T06:19:22;10;;;6;;
84270;SDS011;74614;50.032;19.566;2023-12-20T06:21:24;10;;;6;;
84270;SDS011;74614;50.032;19.566;2023-12-20T06:23:30;10;;;6;;
84270;SDS011;74614;50.032;19.566;2023-12-20T06:25:22;9;;;6;;
84270;SDS011;74614;50.032;19.566;2023-12-20T06:27:21;9;;;6;;
84270;SDS011;74614;50.032;19.566;2023-12-20T06:29:23;9;;;6;;
84270;SDS011;74614;50.032;19.566;2023-12-20T06:31:22;9;;;7;;
84270;SDS011;74614;50.032;19.566;2023-12-20T06:33:25;9;;;6;;
84270;SDS011;74614;50.032;19.566;2023-12-20T06:35:26;8;;;6;;
84270;SDS011;74614;50.032;19.566;2023-12-20T06:37:24;9;;;7;;
84270;SDS011;74614;50.032;19.566;2023-12-20T06:39:21;8;;;6;;
84270;SDS011;74614;50.032;19.566;2023-12-20T06:41:27;10;;;7;;
84270;SDS011;74614;50.032;19.566;2023-12-20T06:43:28;8;;;6;;
84270;SDS011;74614;50.032;19.566;2023-12-20T06:45:22;8;;;7;;
84270;SDS011;74614;50.032;19.566;2023-12-20T06:47:21;8;;;6;;
84270;SDS011;74614;50.032;19.566;2023-12-20T06:49:21;15;;;7;;
84270;SDS011;74614;50.032;19.566;2023-12-20T06:51:26;8;;;7;;
84270;SDS011;74614;50.032;19.566;2023-12-20T06:53:22;9;;;6;;
84270;SDS011;74614;50.032;19.566;2023-12-20T06:55:22;9;;;6;;
84270;SDS011;74614;50.032;19.566;2023-12-20T06:57:21;8;;;7;;
84270;SDS011;74614;50.032;19.566;2023-12-20T06:59:24;8;;;6;;
84270;SDS011;74614;50.032;19.566;2023-12-20T07:01:21;12;;;9;;
84270;SDS011;74614;50.032;19.566;2023-12-20T07:03:21;14;;;9;;
84270;SDS011;74614;50.032;19.566;2023-12-20T07:05:23;19;;;16;;
84270;SDS011;74614;50.032;19.566;2023-12-20T07:07:20;12;;;10;;
84270;SDS011;74614;50.032;19.566;2023-12-20T07:09:22;11;;;8;;
84270;SDS011;74614;50.032;19.566;2023-12-20T07:11:22;10;;;8;;
84270;SDS011;74614;50.032;19.566;2023-12-20T07:13:24;10;;;7;;
84270;SDS011;74614;50.032;19.566;2023-12-20T07:15:22;10;;;7;;
84270;SDS011;74614;50.032;19.566;2023-12-20T07:17:25;10;;;7;;
84270;SDS011;74614;50.032;19.566;2023-12-20T07:19:27;12;;;9;;
84270;SDS011;74614;50.032;19.566;2023-12-20T07:21:23;9;;;7;;
84270;SDS011;74614;50.032;19.566;2023-12-20T07:23:23;12;;;9;;
84270;SDS011;74614;50.032;19.566;2023-12-20T07:25:24;12;;;9;;
84270;SDS011;74614;50.032;19.566;2023-12-20T07:27:23;11;;;8;;
84270;SDS011;74614;50.032;19.566;2023-12-20T07:29:22;10;;;8;;
84270;SDS011;74614;50.032;19.566;2023-12-20T07:31:29;12;;;10;;
84270;SDS011;74614;50.032;19.566;2023-12-20T07:33:23;12;;;10;;
84270;SDS011;74614;50.032;19.566;2023-12-20T07:35:21;12;;;10;;
84270;SDS011;74614;50.032;19.566;2023-12-20T07:37:23;13;;;10;;
84270;SDS011;74614;50.032;19.566;2023-12-20T07:39:23;13;;;10;;
84270;SDS011;74614;50.032;19.566;2023-12-20T07:41:25;12;;;9;;
84270;SDS011;74614;50.032;19.566;2023-12-20T07:43:24;12;;;9;;
84270;SDS011;74614;50.032;19.566;2023-12-20T07:45:23;14;;;10;;
84270;SDS011;74614;50.032;19.566;2023-12-20T07:47:23;14;;;11;;
84270;SDS011;74614;50.032;19.566;2023-12-20T07:49:27;12;;;9;;
84270;SDS011;74614;50.032;19.566;2023-12-20T07:51:23;13;;;10;;
84270;SDS011;74614;50.032;19.566;2023-12-20T07:53:23;11;;;9;;
84270;SDS011;74614;50.032;19.566;2023-12-20T07:55:21;13;;;9;;
84270;SDS011;74614;50.032;19.566;2023-12-20T07:57:24;11;;;8;;
84270;SDS011;74614;50.032;19.566;2023-12-20T07:59:24;12;;;9;;
84270;SDS011;74614;50.032;19.566;2023-12-20T08:01:26;10;;;8;;
84270;SDS011;74614;50.032;19.566;2023-12-20T08:03:21;11;;;8;;
84270;SDS011;74614;50.032;19.566;2023-12-20T08:05:26;11;;;8;;
84270;SDS011;74614;50.032;19.566;2023-12-20T08:07:24;11;;;8;;
84270;SDS011;74614;50.032;19.566;2023-12-20T08:07:38;0;;;0;;
84270;SDS011;74614;50.032;19.566;2023-12-20T08:10:20;12;;;9;;
84270;SDS011;74614;50.032;19.566;2023-12-20T08:12:19;12;;;9;;
84270;SDS011;74614;50.032;19.566;2023-12-20T08:14:19;12;;;9;;
84270;SDS011;74614;50.032;19.566;2023-12-20T08:16:19;12;;;10;;
84270;SDS011;74614;50.032;19.566;2023-12-20T08:18:19;12;;;9;;
84270;SDS011;74614;50.032;19.566;2023-12-20T08:20:20;12;;;9;;
84270;SDS011;74614;50.032;19.566;2023-12-20T08:22:21;11;;;10;;
84270;SDS011;74614;50.032;19.566;2023-12-20T08:24:20;12;;;9;;
84270;SDS011;74614;50.032;19.566;2023-12-20T08:26:21;11;;;9;;
84270;SDS011;74614;50.032;19.566;2023-12-20T08:28:20;12;;;9;;
84270;SDS011;74614;50.032;19.566;2023-12-20T08:30:20;11;;;9;;
84270;SDS011;74614;50.032;19.566;2023-12-20T08:32:19;11;;;9;;
84270;SDS011;74614;50.032;19.566;2023-12-20T08:34:22;13;;;10;;
84270;SDS011;74614;50.032;19.566;2023-12-20T08:36:20;11;;;9;;
84270;SDS011;74614;50.032;19.566;2023-12-20T08:38:22;11;;;8;;
84270;SDS011;74614;50.032;19.566;2023-12-20T08:40:20;12;;;9;;
84270;SDS011;74614;50.032;19.566;2023-12-20T08:42:19;11;;;9;;
84270;SDS011;74614;50.032;19.566;2023-12-20T08:44:22;11;;;8;;
84270;SDS011;74614;50.032;19.566;2023-12-20T08:46:19;11;;;9;;
84270;SDS011;74614;50.032;19.566;2023-12-20T08:48:18;12;;;9;;
84270;SDS011;74614;50.032;19.566;2023-12-20T08:50:19;11;;;8;;
84270;SDS011;74614;50.032;19.566;2023-12-20T08:52:21;13;;;10;;
84270;SDS011;74614;50.032;19.566;2023-12-20T08:54:20;11;;;8;;
84270;SDS011;74614;50.032;19.566;2023-12-20T08:56:19;10;;;8;;
84270;SDS011;74614;50.032;19.566;2023-12-20T08:58:21;12;;;9;;
84270;SDS011;74614;50.032;19.566;2023-12-20T09:00:19;12;;;9;;
84270;SDS011;74614;50.032;19.566;2023-12-20T09:02:19;11;;;9;;
84270;SDS011;74614;50.032;19.566;2023-12-20T09:04:18;12;;;9;;
84270;SDS011;74614;50.032;19.566;2023-12-20T09:06:20;12;;;10;;
84270;SDS011;74614;50.032;19.566;2023-12-20T09:08:19;11;;;8;;
84270;SDS011;74614;50.032;19.566;2023-12-20T09:10:19;11;;;8;;
84270;SDS011;74614;50.032;19.566;2023-12-20T09:12:19;10;;;8;;
84270;SDS011;74614;50.032;19.566;2023-12-20T09:14:19;11;;;9;;
84270;SDS011;74614;50.032;19.566;2023-12-20T09:16:23;11;;;8;;
84270;SDS011;74614;50.032;19.566;2023-12-20T09:18:19;10;;;9;;
84270;SDS011;74614;50.032;19.566;2023-12-20T09:20:22;10;;;8;;
84270;SDS011;74614;50.032;19.566;2023-12-20T09:22:21;8;;;7;;
84270;SDS011;74614;50.032;19.566;2023-12-20T09:24:18;11;;;10;;
84270;SDS011;74614;50.032;19.566;2023-12-20T09:26:20;11;;;9;;
84270;SDS011;74614;50.032;19.566;2023-12-20T09:28:19;11;;;8;;
84270;SDS011;74614;50.032;19.566;2023-12-20T09:30:19;11;;;8;;
84270;SDS011;74614;50.032;19.566;2023-12-20T09:32:19;13;;;8;;
84270;SDS011;74614;50.032;19.566;2023-12-20T09:34:19;11;;;8;;
84270;SDS011;74614;50.032;19.566;2023-12-20T09:36:23;10;;;9;;
84270;SDS011;74614;50.032;19.566;2023-12-20T09:38:22;9;;;7;;
84270;SDS011;74614;50.032;19.566;2023-12-20T09:40:26;10;;;8;;
84270;SDS011;74614;50.032;19.566;2023-12-20T09:42:23;11;;;8;;
84270;SDS011;74614;50.032;19.566;2023-12-20T09:44:23;8;;;7;;
84270;SDS011;74614;50.032;19.566;2023-12-20T09:46:22;10;;;7;;
84270;SDS011;74614;50.032;19.566;2023-12-20T09:48:21;8;;;6;;
84270;SDS011;74614;50.032;19.566;2023-12-20T09:50:22;8;;;6;;
84270;SDS011;74614;50.032;19.566;2023-12-20T09:52:23;7;;;6;;
84270;SDS011;74614;50.032;19.566;2023-12-20T09:54:28;8;;;7;;
84270;SDS011;74614;50.032;19.566;2023-12-20T09:56:23;8;;;7;;
84270;SDS011;74614;50.032;19.566;2023-12-20T09:58:22;9;;;7;;
84270;SDS011;74614;50.032;19.566;2023-12-20T10:00:24;9;;;7;;
84270;SDS011;74614;50.032;19.566;2023-12-20T10:02:25;9;;;7;;
84270;SDS011;74614;50.032;19.566;2023-12-20T10:04:22;8;;;6;;
84270;SDS011;74614;50.032;19.566;2023-12-20T10:06:22;8;;;6;;
84270;SDS011;74614;50.032;19.566;2023-12-20T10:08:24;8;;;6;;
84270;SDS011;74614;50.032;19.566;2023-12-20T10:10:21;7;;;6;;
84270;SDS011;74614;50.032;19.566;2023-12-20T10:12:22;8;;;6;;
84270;SDS011;74614;50.032;19.566;2023-12-20T10:14:21;8;;;6;;
84270;SDS011;74614;50.032;19.566;2023-12-20T10:16:24;8;;;6;;
84270;SDS011;74614;50.032;19.566;2023-12-20T10:18:24;7;;;6;;
84270;SDS011;74614;50.032;19.566;2023-12-20T10:20:24;6;;;5;;
84270;SDS011;74614;50.032;19.566;2023-12-20T10:22:26;7;;;5;;
84270;SDS011;74614;50.032;19.566;2023-12-20T10:24:23;7;;;6;;
84270;SDS011;74614;50.032;19.566;2023-12-20T10:26:22;7;;;6;;
84270;SDS011;74614;50.032;19.566;2023-12-20T10:28:32;8;;;7;;
84270;SDS011;74614;50.032;19.566;2023-12-20T10:30:21;8;;;7;;
84270;SDS011;74614;50.032;19.566;2023-12-20T10:32:23;7;;;6;;
84270;SDS011;74614;50.032;19.566;2023-12-20T10:34:22;8;;;6;;
84270;SDS011;74614;50.032;19.566;2023-12-20T10:36:23;8;;;6;;
84270;SDS011;74614;50.032;19.566;2023-12-20T10:38:21;7;;;5;;
84270;SDS011;74614;50.032;19.566;2023-12-20T10:40:21;8;;;6;;
84270;SDS011;74614;50.032;19.566;2023-12-20T10:42:25;8;;;6;;
84270;SDS011;74614;50.032;19.566;2023-12-20T10:44:20;8;;;6;;
84270;SDS011;74614;50.032;19.566;2023-12-20T10:46:21;8;;;6;;
84270;SDS011;74614;50.032;19.566;2023-12-20T10:48:31;8;;;6;;
84270;SDS011;74614;50.032;19.566;2023-12-20T10:50:24;9;;;6;;
84270;SDS011;74614;50.032;19.566;2023-12-20T10:52:23;9;;;6;;
84270;SDS011;74614;50.032;19.566;2023-12-20T10:54:25;8;;;6;;
84270;SDS011;74614;50.032;19.566;2023-12-20T10:56:29;8;;;6;;
84270;SDS011;74614;50.032;19.566;2023-12-20T10:58:22;9;;;6;;
84270;SDS011;74614;50.032;19.566;2023-12-20T11:00:21;8;;;6;;
84270;SDS011;74614;50.032;19.566;2023-12-20T11:02:22;8;;;7;;
84270;SDS011;74614;50.032;19.566;2023-12-20T11:04:25;8;;;7;;
84270;SDS011;74614;50.032;19.566;2023-12-20T11:06:33;8;;;7;;
84270;SDS011;74614;50.032;19.566;2023-12-20T11:09:22;8;;;6;;
84270;SDS011;74614;50.032;19.566;2023-12-20T11:11:22;9;;;6;;
84270;SDS011;74614;50.032;19.566;2023-12-20T11:14:23;10;;;7;;
84270;SDS011;74614;50.032;19.566;2023-12-20T11:16:21;8;;;6;;
84270;SDS011;74614;50.032;19.566;2023-12-20T11:18:26;8;;;6;;
84270;SDS011;74614;50.032;19.566;2023-12-20T11:20:23;8;;;6;;
84270;SDS011;74614;50.032;19.566;2023-12-20T11:22:27;7;;;6;;
84270;SDS011;74614;50.032;19.566;2023-12-20T11:24:23;7;;;6;;
84270;SDS011;74614;50.032;19.566;2023-12-20T11:26:22;8;;;7;;
84270;SDS011;74614;50.032;19.566;2023-12-20T11:28:25;8;;;6;;
84270;SDS011;74614;50.032;19.566;2023-12-20T11:30:21;8;;;6;;
84270;SDS011;74614;50.032;19.566;2023-12-20T11:32:28;7;;;6;;
84270;SDS011;74614;50.032;19.566;2023-12-20T11:34:26;7;;;5;;
84270;SDS011;74614;50.032;19.566;2023-12-20T11:36:25;9;;;6;;
84270;SDS011;74614;50.032;19.566;2023-12-20T11:38:23;7;;;6;;
84270;SDS011;74614;50.032;19.566;2023-12-20T11:40:28;7;;;5;;
84270;SDS011;74614;50.032;19.566;2023-12-20T11:42:23;7;;;6;;
84270;SDS011;74614;50.032;19.566;2023-12-20T11:44:23;6;;;5;;
84270;SDS011;74614;50.032;19.566;2023-12-20T11:46:20;7;;;5;;
84270;SDS011;74614;50.032;19.566;2023-12-20T11:48:24;7;;;6;;
84270;SDS011;74614;50.032;19.566;2023-12-20T11:50:25;7;;;5;;
84270;SDS011;74614;50.032;19.566;2023-12-20T11:52:21;7;;;5;;
84270;SDS011;74614;50.032;19.566;2023-12-20T11:54:20;7;;;5;;
84270;SDS011;74614;50.032;19.566;2023-12-20T11:56:25;8;;;6;;
84270;SDS011;74614;50.032;19.566;2023-12-20T11:58:21;8;;;6;;
84270;SDS011;74614;50.032;19.566;2023-12-20T12:00:22;8;;;6;;
84270;SDS011;74614;50.032;19.566;2023-12-20T12:02:21;6;;;5;;
84270;SDS011;74614;50.032;19.566;2023-12-20T12:04:23;9;;;7;;
84270;SDS011;74614;50.032;19.566;2023-12-20T12:06:26;9;;;7;;
84270;SDS011;74614;50.032;19.566;2023-12-20T12:08:24;10;;;8;;
84270;SDS011;74614;50.032;19.566;2023-12-20T12:10:22;10;;;7;;
84270;SDS011;74614;50.032;19.566;2023-12-20T12:12:23;7;;;6;;
84270;SDS011;74614;50.032;19.566;2023-12-20T12:14:23;9;;;6;;
84270;SDS011;74614;50.032;19.566;2023-12-20T12:16:23;8;;;6;;
84270;SDS011;74614;50.032;19.566;2023-12-20T12:18:20;7;;;5;;
84270;SDS011;74614;50.032;19.566;2023-12-20T12:20:20;7;;;5;;
84270;SDS011;74614;50.032;19.566;2023-12-20T12:22:30;7;;;5;;
84270;SDS011;74614;50.032;19.566;2023-12-20T12:24:23;7;;;5;;
84270;SDS011;74614;50.032;19.566;2023-12-20T12:26:25;7;;;5;;
84270;SDS011;74614;50.032;19.566;2023-12-20T12:28:25;6;;;5;;
84270;SDS011;74614;50.032;19.566;2023-12-20T12:30:22;7;;;5;;
84270;SDS011;74614;50.032;19.566;2023-12-20T12:32:23;7;;;5;;
84270;SDS011;74614;50.032;19.566;2023-12-20T12:34:29;8;;;6;;
84270;SDS011;74614;50.032;19.566;2023-12-20T12:36:22;8;;;6;;
84270;SDS011;74614;50.032;19.566;2023-12-20T12:38:22;9;;;6;;
84270;SDS011;74614;50.032;19.566;2023-12-20T12:40:22;8;;;6;;
84270;SDS011;74614;50.032;19.566;2023-12-20T12:42:37;8;;;6;;
84270;SDS011;74614;50.032;19.566;2023-12-20T12:45:21;8;;;6;;
84270;SDS011;74614;50.032;19.566;2023-12-20T12:47:23;8;;;6;;
84270;SDS011;74614;50.032;19.566;2023-12-20T12:49:28;8;;;6;;
84270;SDS011;74614;50.032;19.566;2023-12-20T12:51:21;7;;;5;;
84270;SDS011;74614;50.032;19.566;2023-12-20T12:53:25;7;;;6;;
84270;SDS011;74614;50.032;19.566;2023-12-20T12:55:20;6;;;5;;
84270;SDS011;74614;50.032;19.566;2023-12-20T12:57:25;7;;;5;;
84270;SDS011;74614;50.032;19.566;2023-12-20T12:59:22;6;;;5;;